Time;durP1;ratioP1;P1;durP2;ratioP2;P2;SDS_P1;SDS_P2;PMS_P1;PMS_P2;Temp;Humidity;BMP_temperature;BMP_pressure;BME280_temperature;BME280_humidity;BME280_pressure;Samples;Min_cycle;Max_cycle;Signal;HPM_P1;HPM_P2
2023/09/23 00:00:08;;;;;;;12.57;8.33;;;19.20;99.90;;;;;;6164418;23;20175;-82
2023/09/23 00:03:26;;;;;;;;;;;;;;;;;;;;;
2023/09/23 00:10:38;;;;;;;16.33;8.87;;;19.20;99.90;;;;;;5977840;23;20184;-81
2023/09/23 00:18:22;;;;;;;11.87;8.20;;;19.10;99.90;;;;;;5683067;25;20164;-86
2023/09/23 00:22:01;;;;;;;;;;;;;;;;;;;;;
2023/09/23 00:25:46;;;;;;;13.30;8.60;;;19.20;99.90;;;;;;5664803;25;20190;-87
2023/09/23 00:37:09;;;;;;;15.93;10.00;;;18.90;99.90;;;;;;5536668;25;20625;-86
2023/09/23 00:53:40;;;;;;;15.43;10.90;;;18.70;99.90;;;;;;4583375;22;38700652;-88
2023/09/23 00:58:15;;;;;;;;;;;;;;;;;;;;;
2023/09/23 01:01:32;;;;;;;22.17;12.37;;;18.70;99.90;;;;;;5952637;24;20184;-88
2023/09/23 01:05:13;;;;;;;19.77;12.13;;;18.70;99.90;;;;;;5850666;24;20595;-82
2023/09/23 01:08:57;;;;;;;;;;;;;;;;;;;;;
2023/09/23 01:11:57;;;;;;;19.03;12.77;;;18.70;99.90;;;;;;5872232;24;20636;-87
2023/09/23 01:14:40;;;;;;;20.97;12.43;;;18.70;99.90;;;;;;5852050;24;20159;-87
2023/09/23 01:17:23;;;;;;;20.47;12.60;;;18.70;99.90;;;;;;5850004;24;20196;-84
2023/09/23 01:21:01;;;;;;;;;;;;;;;;;;;;;
2023/09/23 01:24:18;;;;;;;20.37;13.10;;;18.70;99.90;;;;;;5800471;24;20163;-88
2023/09/23 01:27:35;;;;;;;21.10;12.67;;;18.80;99.90;;;;;;5822434;24;20556;-87
2023/09/23 01:30:35;;;;;;;19.03;12.73;;;18.80;99.90;;;;;;5824117;24;20167;-88
2023/09/23 01:33:40;;;;;;;24.57;13.73;;;18.70;99.90;;;;;;5842968;24;20166;-86
2023/09/23 01:36:38;;;;;;;19.03;12.97;;;18.80;99.90;;;;;;5891434;24;20191;-87
2023/09/23 01:42:48;;;;;;;;;;;;;;;;;;;;;
2023/09/23 01:46:10;;;;;;;21.67;12.73;;;18.70;99.90;;;;;;5847023;24;20572;-86
2023/09/23 02:26:00;;;;;;;;;;;;;;;;;;;;;
2023/09/23 02:33:43;;;;;;;22.47;12.47;;;18.40;99.90;;;;;;5958539;23;20527;-87
2023/09/23 02:37:16;;;;;;;24.50;12.83;;;18.50;99.90;;;;;;5947904;24;20196;-86
2023/09/23 03:05:07;;;;;;;21.00;12.10;;;18.30;99.90;;;;;;6268709;22;20211;-81
2023/09/23 03:08:37;;;;;;;21.80;11.87;;;18.30;99.90;;;;;;6132860;23;20303;-87
2023/09/23 03:16:09;;;;;;;20.87;11.90;;;18.20;99.90;;;;;;5980399;23;20191;-86
2023/09/23 03:19:15;;;;;;;21.27;11.87;;;18.30;99.90;;;;;;5986149;23;20682;-87
2023/09/23 03:22:37;;;;;;;18.00;11.43;;;18.20;99.90;;;;;;6034236;23;20278;-87
2023/09/23 03:26:53;;;;;;;;;;;;;;;;;;;;;
2023/09/23 05:06:57;;;;;;;;;;;;;;;;;;;;;
2023/09/23 05:10:39;;;;;;;;;;;;;;;;;;;;;
2023/09/23 06:53:05;;;;;;;24.73;14.43;;;16.70;99.90;;;;;;6233322;22;20701;-87
2023/09/23 06:56:39;;;;;;;19.87;13.10;;;16.90;99.90;;;;;;6244094;22;20194;-82
2023/09/23 07:00:16;;;;;;;;;;;;;;;;;;;;;
2023/09/23 07:03:24;;;;;;;20.87;12.20;;;17.10;99.90;;;;;;6036095;23;20303;-86
2023/09/23 14:22:26;;;;;;;;;;;;;;;;;;;;;
2023/09/23 14:26:13;;;;;;;5.40;3.80;;;18.00;99.90;;;;;;5839794;24;20174;-85
2023/09/23 14:29:23;;;;;;;10.23;4.10;;;18.00;99.90;;;;;;5803029;24;20170;-87
2023/09/23 15:11:41;;;;;;;;;;;;;;;;;;;;;
2023/09/23 15:14:52;;;;;;;7.07;4.23;;;17.60;99.90;;;;;;6063396;23;20198;-91
2023/09/23 15:18:00;;;;;;;6.97;4.40;;;17.50;99.90;;;;;;5953182;24;20216;-90
2023/09/23 15:21:10;;;;;;;7.77;4.50;;;17.20;99.90;;;;;;5940410;22;20258;-87
2023/09/23 15:24:25;;;;;;;6.80;4.37;;;17.30;99.90;;;;;;6221342;23;20173;-85
2023/09/23 15:27:41;;;;;;;5.73;3.90;;;17.10;99.90;;;;;;6241957;23;20180;-89
2023/09/23 15:30:56;;;;;;;6.77;4.40;;;17.20;99.90;;;;;;5942975;24;20191;-88
2023/09/23 15:33:46;;;;;;;5.90;4.07;;;17.20;99.90;;;;;;5934469;23;20202;-87
2023/09/23 15:36:22;;;;;;;7.73;4.77;;;17.10;99.90;;;;;;5982661;23;20314;-86
2023/09/23 15:39:18;;;;;;;8.23;4.20;;;17.00;99.90;;;;;;6005876;23;20608;-88
2023/09/23 15:42:39;;;;;;;;;;;;;;;;;;;;;
2023/09/23 15:46:05;;;;;;;6.77;4.60;;;17.00;99.90;;;;;;5788240;24;20272;-87
2023/09/23 15:48:50;;;;;;;9.20;4.87;;;17.20;99.90;;;;;;5788806;24;20817;-83
2023/09/23 16:26:30;;;;;;;13.27;8.73;;;16.60;99.90;;;;;;6217520;22;20293;-87
2023/09/23 16:33:31;;;;;;;12.97;8.37;;;16.70;99.90;;;;;;6115051;23;20159;-86
2023/09/23 16:36:44;;;;;;;12.13;8.07;;;16.70;99.90;;;;;;6115949;23;20206;-85
2023/09/23 16:39:33;;;;;;;11.97;8.00;;;16.60;99.90;;;;;;6188042;23;20632;-86
2023/09/23 16:42:16;;;;;;;12.83;7.97;;;16.70;99.90;;;;;;6213279;23;20158;-86
2023/09/23 16:45:45;;;;;;;12.93;7.70;;;16.70;99.90;;;;;;6211074;23;20196;-87
2023/09/23 16:49:19;;;;;;;11.13;7.20;;;16.50;99.90;;;;;;5990306;23;20176;-86
2023/09/23 16:52:04;;;;;;;11.80;7.37;;;16.80;99.90;;;;;;6042104;23;20206;-86
2023/09/23 16:54:53;;;;;;;10.50;7.17;;;16.70;99.90;;;;;;6040243;23;20261;-86
2023/09/23 16:57:50;;;;;;;11.37;7.50;;;16.70;99.90;;;;;;6041735;23;20202;-80
2023/09/23 17:00:29;;;;;;;11.37;7.60;;;16.70;99.90;;;;;;6038789;23;20601;-86
2023/09/23 17:03:27;;;;;;;13.63;8.30;;;16.70;99.90;;;;;;6043503;23;20243;-86
2023/09/23 17:06:11;;;;;;;13.07;8.70;;;16.60;99.90;;;;;;6062373;23;20198;-86
2023/09/23 17:09:02;;;;;;;18.67;9.43;;;16.70;99.90;;;;;;6063330;23;20204;-86
2023/09/23 17:12:16;;;;;;;;;;;;;;;;;;;;;
2023/09/23 17:15:05;;;;;;;13.40;8.90;;;16.60;99.90;;;;;;6063371;23;20181;-87
2023/09/23 17:18:27;;;;;;;11.80;8.27;;;16.80;99.90;;;;;;6062984;23;20199;-86
2023/09/23 18:10:52;;;;;;;16.07;9.80;;;16.40;99.90;;;;;;5518378;22;16002149;-90
2023/09/23 18:14:14;;;;;;;15.30;9.80;;;16.40;99.90;;;;;;6176064;23;20167;-88
2023/09/23 18:17:04;;;;;;;20.87;10.97;;;16.40;99.90;;;;;;6195445;23;20507;-80
2023/09/23 18:20:31;;;;;;;14.50;9.37;;;16.40;99.90;;;;;;6173016;23;20169;-88
2023/09/23 18:23:36;;;;;;;19.27;10.33;;;16.30;99.90;;;;;;6164083;23;20179;-85
2023/09/23 18:30:27;;;;;;;17.03;10.50;;;16.20;99.90;;;;;;5987727;23;20179;-84
2023/09/23 18:33:05;;;;;;;14.67;10.50;;;16.20;99.90;;;;;;5991496;23;20278;-80
2023/09/23 18:36:00;;;;;;;16.27;10.60;;;16.20;99.90;;;;;;5991757;23;20411;-78
2023/09/23 18:38:37;;;;;;;16.87;11.07;;;16.20;99.90;;;;;;5990445;23;20663;-85
2023/09/23 18:41:38;;;;;;;27.60;12.73;;;16.20;99.90;;;;;;5989981;23;20225;-85
2023/09/23 18:45:27;;;;;;;18.47;11.77;;;16.10;99.90;;;;;;5985578;23;20202;-86
2023/09/23 19:18:10;;;;;;;17.80;11.23;;;16.00;99.90;;;;;;6334358;22;20208;-87
2023/09/23 19:21:34;;;;;;;17.67;11.70;;;16.00;99.90;;;;;;6305461;22;20189;-86
2023/09/23 19:29:21;;;;;;;20.87;12.03;;;15.90;99.90;;;;;;6005375;23;20302;-89
2023/09/23 19:32:21;;;;;;;18.53;12.40;;;15.90;99.90;;;;;;5945495;24;20205;-88
2023/09/23 19:35:38;;;;;;;19.77;13.63;;;15.90;99.90;;;;;;5954971;24;20187;-88
2023/09/23 19:38:16;;;;;;;18.43;12.90;;;16.10;99.90;;;;;;5953894;24;20530;-80
2023/09/23 19:41:06;;;;;;;18.60;13.13;;;15.90;99.90;;;;;;5978444;24;20263;-89
2023/09/23 19:44:08;;;;;;;19.13;13.13;;;15.70;99.90;;;;;;5974848;24;20324;-89
2023/09/23 19:47:07;;;;;;;20.90;13.83;;;15.90;99.90;;;;;;5942352;24;20183;-86
2023/09/23 19:49:42;;;;;;;20.33;13.33;;;15.80;99.90;;;;;;5950668;24;20173;-82
2023/09/23 19:52:22;;;;;;;20.47;13.70;;;15.80;99.90;;;;;;5947595;24;20740;-79
2023/09/23 19:55:00;;;;;;;21.43;14.53;;;15.80;99.90;;;;;;5950735;24;20276;-79
2023/09/23 19:57:57;;;;;;;23.23;14.80;;;15.80;99.90;;;;;;5958465;24;20183;-79
2023/09/23 20:00:27;;;;;;;22.57;14.23;;;15.70;99.90;;;;;;5978476;24;20180;-85
2023/09/23 20:02:57;;;;;;;21.63;14.37;;;15.90;99.90;;;;;;6115943;23;20187;-86
2023/09/23 20:05:28;;;;;;;18.70;13.03;;;16.00;99.90;;;;;;6098296;23;20251;-86
2023/09/23 20:07:58;;;;;;;19.47;14.00;;;16.00;99.90;;;;;;6248438;22;20175;-85
2023/09/23 20:10:29;;;;;;;18.13;13.20;;;15.90;99.90;;;;;;6248764;22;20201;-84
2023/09/23 20:13:04;;;;;;;18.93;13.23;;;16.00;99.90;;;;;;6248988;22;20226;-84
2023/09/23 20:15:40;;;;;;;16.77;12.23;;;15.80;99.90;;;;;;6248937;22;20173;-81
2023/09/23 20:18:16;;;;;;;20.73;13.40;;;15.80;99.90;;;;;;6193206;23;20177;-80
2023/09/23 20:20:54;;;;;;;19.23;12.73;;;15.60;99.90;;;;;;6216975;23;20201;-81
2023/09/23 20:23:33;;;;;;;18.03;12.70;;;15.70;99.90;;;;;;6243597;23;20196;-80
2023/09/23 20:26:15;;;;;;;16.37;11.50;;;15.70;99.90;;;;;;6203088;23;20204;-82
2023/09/23 20:37:29;;;;;;;15.30;11.00;;;15.70;99.90;;;;;;6242109;22;20220;-81
2023/09/23 20:40:40;;;;;;;16.70;10.23;;;15.70;99.90;;;;;;6242007;23;20338;-87
2023/09/23 20:43:48;;;;;;;13.90;10.20;;;15.50;99.90;;;;;;6218245;23;20490;-90
2023/09/23 20:46:36;;;;;;;13.37;10.03;;;15.40;99.90;;;;;;6219082;23;20170;-81
2023/09/23 20:49:32;;;;;;;14.97;9.63;;;15.50;99.90;;;;;;6220721;23;20225;-81
2023/09/23 20:52:41;;;;;;;15.70;9.77;;;15.50;99.90;;;;;;6192634;23;20187;-87
2023/09/23 20:56:00;;;;;;;12.60;8.50;;;15.50;99.90;;;;;;6203393;23;20174;-87
2023/09/23 20:59:09;;;;;;;13.20;8.80;;;15.20;99.90;;;;;;6219922;23;20189;-86
2023/09/23 21:01:50;;;;;;;11.73;8.50;;;15.30;99.90;;;;;;6192194;23;20535;-81
2023/09/23 21:22:17;;;;;;;10.03;6.20;;;15.20;99.90;;;;;;5978426;23;20192;-82
2023/09/23 22:23:36;;;;;;;13.37;6.50;;;14.60;99.90;;;;;;6288821;22;20207;-86
2023/09/23 22:29:33;;;;;;;9.60;6.80;;;14.60;99.90;;;;;;6214338;23;20233;-87
2023/09/23 22:32:43;;;;;;;6.40;5.73;;;14.50;99.90;;;;;;6100655;23;20181;-86
2023/09/23 22:36:11;;;;;;;8.60;6.60;;;14.50;99.90;;;;;;6099322;23;20178;-84
2023/09/23 22:39:47;;;;;;;12.27;6.93;;;14.40;99.90;;;;;;6022305;23;20171;-84
2023/09/23 22:43:11;;;;;;;14.20;7.07;;;14.40;99.90;;;;;;5981105;23;20176;-80
2023/09/23 22:46:02;;;;;;;8.60;6.13;;;14.40;99.90;;;;;;5986599;23;20175;-86
2023/09/23 22:49:55;;;;;;;8.13;6.20;;;14.00;99.90;;;;;;5979217;23;20524;-83
2023/09/23 22:53:46;;;;;;;7.77;6.43;;;14.10;99.90;;;;;;5813203;24;20207;-80
2023/09/23 22:57:55;;;;;;;9.87;6.27;;;14.10;99.90;;;;;;5713762;25;20269;-80
2023/09/23 23:02:04;;;;;;;;;;;;;;;;;;;;;
2023/09/23 23:15:37;;;;;;;;;;;;;;;;;;;;;
2023/09/23 23:18:52;;;;;;;13.13;6.93;;;13.50;99.90;;;;;;5065461;28;20547;-86
2023/09/23 23:23:22;;;;;;;;;;;;;;;;;;;;;
2023/09/23 23:30:55;;;;;;;;;;;;;;;;;;;;;
